Time;durP1;ratioP1;P1;durP2;ratioP2;P2;SDS_P1;SDS_P2;PMS_P1;PMS_P2;Temp;Humidity;BMP_temperature;BMP_pressure;BME280_temperature;BME280_humidity;BME280_pressure;Samples;Min_cycle;Max_cycle;Signal;HPM_P1;HPM_P2
2024/02/04 00:09:28;;;;;;;3.50;2.30;;;;;;;6.24;100.00;99069.36;434179;1259;139736;-63
2024/02/04 00:19:34;;;;;;;7.30;2.20;;;;;;;6.24;100.00;99074.26;434082;1256;139227;-63
2024/02/04 00:29:41;;;;;;;3.30;2.80;;;;;;;6.16;100.00;99065.48;433802;1256;140048;-64
2024/02/04 00:39:49;;;;;;;8.50;3.70;;;;;;;6.04;100.00;99057.77;434782;1259;138760;-64
2024/02/04 00:49:55;;;;;;;4.20;3.70;;;;;;;5.93;100.00;99046.67;434940;1257;139514;-63
2024/02/04 01:00:02;;;;;;;3.90;2.50;;;;;;;5.61;100.00;99042.41;436055;1257;140150;-65
2024/02/04 01:10:10;;;;;;;3.20;2.50;;;;;;;5.32;100.00;99044.95;436984;1259;140036;-64
2024/02/04 01:20:16;;;;;;;3.00;1.70;;;;;;;5.11;100.00;99049.68;434280;1259;139352;-64
2024/02/04 01:30:22;;;;;;;3.50;1.80;;;;;;;5.01;100.00;99057.27;433752;1259;139862;-71
2024/02/04 01:40:28;;;;;;;2.30;2.00;;;;;;;5.02;100.00;99053.38;433816;1259;139436;-69
2024/02/04 01:50:35;;;;;;;3.20;1.60;;;;;;;4.91;100.00;99032.80;433926;1257;139675;-71
2024/02/04 02:00:44;;;;;;;3.80;1.70;;;;;;;4.72;100.00;99035.08;435078;1256;140025;-70
2024/02/04 02:10:52;;;;;;;2.20;0.60;;;;;;;4.51;100.00;99046.83;435238;1259;139036;-69
2024/02/04 02:21:18;;;;;;;1.40;1.10;;;;;;;4.32;100.00;99033.48;434788;1258;138967;-69
2024/02/04 02:31:24;;;;;;;3.20;1.50;;;;;;;4.17;100.00;99033.88;434705;1259;139896;-71
2024/02/04 02:41:50;;;;;;;3.40;1.40;;;;;;;4.07;100.00;99036.93;434275;1259;139554;-70
2024/02/04 02:51:57;;;;;;;5.60;2.20;;;;;;;3.99;100.00;99037.64;434649;1259;138924;-68
2024/02/04 03:02:03;;;;;;;3.50;1.40;;;;;;;3.95;100.00;99027.59;436241;1259;140207;-69
2024/02/04 03:12:10;;;;;;;5.60;1.20;;;;;;;3.90;100.00;99041.45;433797;1259;139811;-68
2024/02/04 03:22:18;;;;;;;5.40;1.90;;;;;;;3.72;100.00;99042.13;433967;1254;139636;-68
2024/02/04 03:32:24;;;;;;;4.30;2.30;;;;;;;3.55;100.00;99063.27;433940;1259;139650;-70
2024/02/04 03:42:30;;;;;;;7.90;2.20;;;;;;;3.38;100.00;99067.10;434039;1260;139042;-68
2024/02/04 03:52:36;;;;;;;3.70;1.60;;;;;;;3.22;100.00;99075.21;433923;1260;139961;-68
2024/02/04 04:02:43;;;;;;;2.10;1.80;;;;;;;3.03;100.00;99088.44;435580;1260;138916;-70
2024/02/04 04:12:48;;;;;;;;;;;;;;;2.86;100.00;99094.31;434816;1260;140388;-69
2024/02/04 04:22:54;;;;;;;4.30;1.80;;;;;;;2.69;100.00;99106.91;435041;1260;126328;-69
2024/02/04 04:33:00;;;;;;;3.20;1.70;;;;;;;2.65;100.00;99119.86;434199;1259;139422;-70
2024/02/04 04:43:07;;;;;;;4.10;1.80;;;;;;;2.87;100.00;99113.14;436505;1260;140818;-69
2024/02/04 04:53:15;;;;;;;4.10;1.80;;;;;;;2.98;100.00;99102.16;435335;1259;140018;-68
2024/02/04 05:03:21;;;;;;;7.80;2.10;;;;;;;2.85;100.00;99113.90;434048;1259;139733;-67
2024/02/04 05:13:32;;;;;;;7.70;1.90;;;;;;;2.68;100.00;99114.02;434215;1260;138670;-69
2024/02/04 05:23:38;;;;;;;4.70;1.80;;;;;;;2.56;100.00;99105.36;433946;1257;139977;-69
2024/02/04 05:33:44;;;;;;;4.00;1.80;;;;;;;2.64;100.00;99103.81;434645;1259;138924;-67
2024/02/04 05:43:50;;;;;;;7.80;2.50;;;;;;;2.86;100.00;99097.28;434326;1260;138844;-69
2024/02/04 05:53:57;;;;;;;5.90;1.90;;;;;;;2.90;100.00;99098.30;434211;1259;139168;-69
2024/02/04 06:04:03;;;;;;;6.80;2.80;;;;;;;2.97;100.00;99113.45;434622;1257;141361;-69
2024/02/04 06:14:10;;;;;;;4.80;1.70;;;;;;;3.10;100.00;99119.48;435325;1257;139128;-68
2024/02/04 06:24:16;;;;;;;5.60;2.70;;;;;;;3.22;100.00;99116.20;434127;1259;139765;-68
2024/02/04 06:34:22;;;;;;;5.30;2.20;;;;;;;3.27;100.00;99113.26;434974;1259;138789;-69
2024/02/04 06:44:31;;;;;;;6.40;2.80;;;;;;;3.30;100.00;99111.94;434691;1259;139727;-70
2024/02/04 06:54:37;;;;;;;8.10;2.00;;;;;;;3.39;100.00;99111.02;434290;1258;139231;-69
2024/02/04 07:04:43;;;;;;;7.70;2.40;;;;;;;3.59;100.00;99109.66;434691;1257;139486;-69
2024/02/04 07:14:50;;;;;;;8.70;1.90;;;;;;;3.74;100.00;99103.47;434599;1257;140390;-70
2024/02/04 07:24:56;;;;;;;5.00;1.40;;;;;;;3.95;100.00;99098.73;434931;1260;140079;-68
2024/02/04 07:35:02;;;;;;;4.40;1.70;;;;;;;4.20;100.00;99099.57;434877;1256;139621;-69
2024/02/04 07:45:10;;;;;;;3.50;1.80;;;;;;;4.44;100.00;99083.56;437355;1254;139369;-68
2024/02/04 07:55:16;;;;;;;3.20;1.80;;;;;;;4.63;100.00;99094.10;435536;1259;139004;-69
2024/02/04 08:05:23;;;;;;;5.70;1.90;;;;;;;4.68;100.00;99100.09;434580;1254;139806;-71
2024/02/04 08:15:29;;;;;;;7.50;2.30;;;;;;;4.70;100.00;99091.02;434550;1259;139131;-70
2024/02/04 08:25:36;;;;;;;5.80;2.10;;;;;;;4.80;100.00;99089.67;436726;1254;139500;-69
2024/02/04 08:35:42;;;;;;;6.40;2.70;;;;;;;4.89;100.00;99095.98;434184;1258;139852;-68
2024/02/04 08:45:48;;;;;;;4.30;1.80;;;;;;;5.06;100.00;99080.77;434130;1256;139295;-68
2024/02/04 08:55:54;;;;;;;8.20;1.70;;;;;;;5.26;100.00;99069.20;433949;1259;281332;-69
2024/02/04 09:06:00;;;;;;;5.70;3.00;;;;;;;5.41;100.00;99080.77;435752;1254;140011;-69
2024/02/04 09:16:08;;;;;;;4.40;2.70;;;;;;;5.52;100.00;99087.02;434722;1259;139098;-69
2024/02/04 09:26:15;;;;;;;4.50;1.80;;;;;;;5.48;100.00;99085.83;435336;1256;139807;-69
2024/02/04 09:36:24;;;;;;;5.40;1.90;;;;;;;5.52;100.00;99080.59;434383;1260;140278;-69
2024/02/04 09:46:31;;;;;;;6.40;2.70;;;;;;;5.41;100.00;99063.59;434412;1254;139551;-69
2024/02/04 09:56:41;;;;;;;7.00;1.90;;;;;;;5.31;100.00;99061.16;434796;1256;140580;-68
2024/02/04 10:06:49;;;;;;;9.10;2.10;;;;;;;5.26;100.00;99040.59;434047;1258;139966;-68
2024/02/04 10:16:58;;;;;;;5.70;1.90;;;;;;;5.12;100.00;99029.45;433955;1259;139243;-69
2024/02/04 10:27:05;;;;;;;7.60;1.90;;;;;;;5.00;100.00;99025.91;434602;1259;139420;-68
2024/02/04 10:37:14;;;;;;;9.40;2.60;;;;;;;4.98;100.00;98999.66;434863;1256;139051;-69
2024/02/04 10:47:22;;;;;;;;;;;;;;;5.00;100.00;98988.63;434729;1259;139678;-69
2024/02/04 10:57:30;;;;;;;3.10;1.30;;;;;;;5.14;100.00;98971.80;434205;1259;126324;-68
2024/02/04 11:07:37;;;;;;;6.80;2.30;;;;;;;5.39;100.00;98950.52;434103;1254;139620;-68
2024/02/04 11:18:06;;;;;;;5.30;1.50;;;;;;;5.62;100.00;98937.03;433950;1256;139006;-68
2024/02/04 11:28:16;;;;;;;7.60;2.00;;;;;;;5.69;100.00;98933.83;434763;1259;140110;-69
2024/02/04 11:38:30;;;;;;;6.00;2.50;;;;;;;5.67;100.00;98933.08;435719;1254;138752;-68
2024/02/04 11:48:38;;;;;;;7.80;2.50;;;;;;;5.65;100.00;98928.84;434487;1259;139913;-65
2024/02/04 11:58:46;;;;;;;3.30;2.20;;;;;;;5.70;100.00;98914.48;435153;1259;138856;-65
2024/02/04 12:08:53;;;;;;;4.50;2.00;;;;;;;5.73;100.00;98899.79;435055;1256;139127;-72
2024/02/04 12:18:59;;;;;;;3.90;2.60;;;;;;;5.67;100.00;98871.96;435337;1256;140379;-72
2024/02/04 12:29:08;;;;;;;5.10;2.50;;;;;;;5.67;100.00;98858.96;434957;1257;139321;-72
2024/02/04 12:39:16;;;;;;;5.00;2.10;;;;;;;5.70;100.00;98851.46;438226;1255;138782;-73
2024/02/04 12:49:23;;;;;;;3.10;1.80;;;;;;;5.87;100.00;98826.57;438027;1256;140251;-73
2024/02/04 12:59:32;;;;;;;4.80;1.40;;;;;;;6.11;100.00;98818.13;438069;1255;139515;-73
2024/02/04 13:09:41;;;;;;;3.10;1.60;;;;;;;6.18;100.00;98813.21;436459;1255;139195;-74
2024/02/04 13:19:48;;;;;;;3.50;1.90;;;;;;;6.14;100.00;98793.23;436157;1256;138683;-72
2024/02/04 13:29:54;;;;;;;2.30;1.10;;;;;;;6.10;100.00;98776.80;437717;1254;139127;-74
2024/02/04 13:40:00;;;;;;;6.90;2.40;;;;;;;6.08;100.00;98764.10;434475;1256;138884;-73
2024/02/04 13:50:08;;;;;;;3.40;2.00;;;;;;;6.06;100.00;98756.05;437837;1259;139087;-74
2024/02/04 14:00:17;;;;;;;4.00;2.10;;;;;;;6.05;100.00;98743.57;437804;1254;139990;-74
2024/02/04 14:10:23;;;;;;;4.40;2.40;;;;;;;6.06;100.00;98739.16;438110;1256;138999;-72
2024/02/04 14:20:30;;;;;;;12.20;2.50;;;;;;;6.06;100.00;98730.34;442312;1256;138755;-73
2024/02/04 14:30:36;;;;;;;3.70;1.90;;;;;;;6.00;100.00;98730.98;439946;1259;139366;-73
2024/02/04 14:40:45;;;;;;;6.40;2.20;;;;;;;5.95;100.00;98728.61;438423;1257;139232;-73
2024/02/04 14:50:51;;;;;;;3.80;1.80;;;;;;;5.91;100.00;98723.16;438257;1259;138799;-73
2024/02/04 15:00:57;;;;;;;5.30;1.50;;;;;;;5.85;100.00;98720.19;434341;1259;139053;-74
2024/02/04 15:11:04;;;;;;;4.30;1.70;;;;;;;5.77;100.00;98714.21;437136;1254;140532;-73
2024/02/04 15:21:14;;;;;;;7.30;2.40;;;;;;;5.69;100.00;98713.85;438027;1257;138853;-73
2024/02/04 15:31:21;;;;;;;4.80;2.10;;;;;;;5.60;100.00;98713.30;438143;1256;139624;-73
2024/02/04 15:41:27;;;;;;;5.50;1.70;;;;;;;5.53;100.00;98696.69;434800;1254;139243;-73
2024/02/04 15:51:36;;;;;;;5.00;2.20;;;;;;;5.46;100.00;98689.10;437839;1256;139590;-71
2024/02/04 16:01:45;;;;;;;4.30;2.00;;;;;;;5.43;100.00;98686.15;436719;1258;139168;-72
2024/02/04 16:12:04;;;;;;;6.10;3.00;;;;;;;5.40;100.00;98682.81;436015;1256;139080;-73
2024/02/04 16:22:15;;;;;;;4.10;1.40;;;;;;;5.37;100.00;98683.16;436568;1257;139750;-72
2024/02/04 16:32:23;;;;;;;6.40;3.00;;;;;;;5.36;100.00;98679.59;435943;1257;140398;-72
2024/02/04 16:42:34;;;;;;;4.60;2.10;;;;;;;5.35;100.00;98681.05;437557;1256;139028;-72
2024/02/04 16:52:41;;;;;;;6.10;2.00;;;;;;;5.34;100.00;98677.26;437757;1256;138889;-72
2024/02/04 17:02:48;;;;;;;8.00;2.70;;;;;;;5.35;100.00;98679.29;435752;1257;139598;-73
2024/02/04 17:12:56;;;;;;;6.60;2.50;;;;;;;5.35;100.00;98677.20;437746;1259;139835;-74
2024/02/04 17:23:14;;;;;;;5.10;2.30;;;;;;;5.33;100.00;98668.43;437182;1257;139036;-72
2024/02/04 17:33:23;;;;;;;4.10;1.80;;;;;;;5.30;100.00;98663.91;438062;1259;138751;-72
2024/02/04 17:43:29;;;;;;;5.00;2.00;;;;;;;5.30;100.00;98656.81;437740;1259;139311;-73
2024/02/04 17:53:36;;;;;;;4.30;2.10;;;;;;;5.31;100.00;98660.59;442201;1254;139264;-72
2024/02/04 18:03:42;;;;;;;4.30;2.50;;;;;;;5.40;100.00;98660.98;444521;1256;138516;-73
2024/02/04 18:13:49;;;;;;;3.60;2.10;;;;;;;5.41;100.00;98658.64;435543;1257;139807;-73
2024/02/04 18:29:25;;;;;;;5.20;2.80;;;;;;;5.38;100.00;98650.51;424863;1289;599894;-59
2024/02/04 18:39:51;;;;;;;3.80;1.70;;;;;;;5.31;100.00;98643.57;431717;1258;5091791;-63
2024/02/04 18:50:17;;;;;;;5.70;2.40;;;;;;;5.27;100.00;98635.50;436963;1253;138597;-59
2024/02/04 19:11:12;;;;;;;4.10;1.90;;;;;;;5.23;100.00;98631.38;436908;1265;960095;-60
2024/02/04 19:21:18;;;;;;;5.30;3.20;;;;;;;5.24;100.00;98618.66;434652;1266;138500;-58
2024/02/04 19:31:24;;;;;;;4.80;2.20;;;;;;;5.22;100.00;98616.53;434302;1262;139285;-57
2024/02/04 19:41:31;;;;;;;5.80;3.40;;;;;;;5.21;100.00;98609.98;439818;1255;138909;-51
2024/02/04 19:51:37;;;;;;;4.10;1.80;;;;;;;5.22;100.00;98609.60;449003;1261;139470;-52
2024/02/04 20:01:45;;;;;;;4.70;2.00;;;;;;;5.23;100.00;98597.36;443396;1258;139495;-52
2024/02/04 20:11:51;;;;;;;2.80;1.50;;;;;;;5.25;100.00;98591.52;434404;1264;139141;-51
2024/02/04 20:21:57;;;;;;;5.10;3.40;;;;;;;5.27;100.00;98592.95;437604;1260;138635;-47
2024/02/04 20:32:03;;;;;;;4.40;2.20;;;;;;;5.30;100.00;98595.41;448870;1259;138898;-58
2024/02/04 20:42:30;;;;;;;3.40;2.10;;;;;;;5.31;100.00;98579.90;444931;1260;138662;-58
2024/02/04 20:53:03;;;;;;;6.60;2.90;;;;;;;5.33;100.00;98574.75;435842;1261;140768;-58
2024/02/04 21:03:30;;;;;;;5.50;2.30;;;;;;;5.34;100.00;98562.21;438123;1261;139333;-58
2024/02/04 21:13:57;;;;;;;4.50;2.70;;;;;;;5.33;100.00;98552.37;439981;1261;139177;-59
2024/02/04 21:24:25;;;;;;;6.50;2.80;;;;;;;5.35;100.00;98541.85;436452;1260;138739;-48
2024/02/04 21:34:52;;;;;;;4.40;1.30;;;;;;;5.38;100.00;98531.80;435071;1263;140221;-48
2024/02/04 21:44:59;;;;;;;3.80;2.10;;;;;;;5.40;100.00;98518.98;437068;1257;139592;-57
2024/02/04 21:55:06;;;;;;;2.00;1.50;;;;;;;5.39;100.00;98512.09;436990;1261;139026;-56
2024/02/04 22:05:12;;;;;;;5.10;1.90;;;;;;;5.38;100.00;98513.19;436345;1261;138970;-56
2024/02/04 22:15:20;;;;;;;5.80;2.70;;;;;;;5.39;100.00;98510.40;440073;1261;138758;-56
2024/02/04 22:25:27;;;;;;;5.40;2.30;;;;;;;5.34;100.00;98510.13;436095;1260;139408;-56
2024/02/04 22:35:34;;;;;;;3.40;2.30;;;;;;;5.24;100.00;98515.09;436169;1260;139108;-58
2024/02/04 22:45:40;;;;;;;5.70;2.70;;;;;;;5.12;100.00;98503.80;436913;1255;138961;-62
2024/02/04 22:55:46;;;;;;;7.90;3.00;;;;;;;4.95;100.00;98496.80;436761;1262;139113;-58
2024/02/04 23:05:52;;;;;;;2.50;1.90;;;;;;;4.87;100.00;98499.01;436468;1260;140420;-76
2024/02/04 23:15:58;;;;;;;4.20;2.30;;;;;;;4.80;100.00;98492.80;436870;1260;142235;-78
2024/02/04 23:26:04;;;;;;;4.40;2.10;;;;;;;4.74;100.00;98482.92;435290;1264;139287;-74
2024/02/04 23:36:10;;;;;;;4.00;2.30;;;;;;;4.67;100.00;98474.66;435360;1257;139624;-63
2024/02/04 23:46:17;;;;;;;5.10;2.30;;;;;;;4.62;100.00;98464.20;435102;1261;138805;-62
2024/02/04 23:56:24;;;;;;;2.80;2.20;;;;;;;4.60;100.00;98450.95;435335;1264;139494;-56
